Pagina principale
METAR-TAF:

METAR-TAF

Aeroporti :

Grazzanise, Italia

latitudine: 41-03N, longitudine: 014-04E, altezza: 9 m

Osservazione

Il bollettino è stato emesso 32 minuti fa, alle 14:55 UTC
Vento 14 kt da sud/sud-ovest
Temperature 22°C
Umidità 57%
Pressione 1005 hPa
Visibilità 10 km o più
Nubi sparse ad un'altezza di 3000 ft

METAR: LIRM 271455Z 21014KT 9999 SCT030 22/13 Q1005 RMK SCT VIS MIN 9999 WIND THR06 25013KT BLU

Ora: 17:27 (15:27 UTC)

Previsione

Il bollettino è stato emesso 1 ora e 27 minuti fa, alle 14:00 UTC
Previsione valida dal 27 alle 15 UTC al 27 alle 24 UTC
Vento 15 kt da ovest/sud-ovest
Visibilità 10 km o più
Nubi sparse ad un'altezza di 3000 ft
Temporaneamente
dal 27 alle 15 UTC al 27 alle 21 UTC
Visibilità: 5000 m
Nubi sparse ad un'altezza di 3000 ft
Nuvoloso ad un'altezza di 5000 ft
pioggia

TAF: LIRM 271400Z 2715/2724 25015KT 9999 SCT030 TEMPO 2715/2721 5000 RA SCT030 BKN050

Osservazioni e previsioni meteorologiche di più di 4000 aeroporti (messaggi METAR e TAF).

Le stazioni disponibili sono rappresentate dai dischi gialli e rossi sulla carta.

Puntare il mouse per vedere il nome della stazione.

Clicca sopra per visualizzare le osservazioni e previsioni meteorologiche.

Per cambiare la mappa : fare clic sui pulsanti verdi con una croce nera per ingrandire, il pulsante verde con un trattino per diminuire, o sulla freccia verde per le mappe adiacenti.


METAR-TAF: